createdAt,value
2019-03-26T00:01:06.796Z,10.37
2019-03-26T00:03:36.261Z,8.90
2019-03-26T00:06:06.498Z,11.03
2019-03-26T00:08:36.675Z,9.17
2019-03-26T00:11:07.022Z,12.17
2019-03-26T00:13:37.287Z,12.83
2019-03-26T00:16:07.558Z,10.27
2019-03-26T00:18:37.721Z,7.97
2019-03-26T00:21:08.126Z,8.73
2019-03-26T00:23:38.401Z,9.13
2019-03-26T00:26:08.669Z,8.87
2019-03-26T00:28:38.114Z,9.80
2019-03-26T00:31:08.264Z,9.27
2019-03-26T00:33:38.452Z,11.63
2019-03-26T00:36:08.690Z,8.77
2019-03-26T00:38:39.171Z,9.40
2019-03-26T00:41:09.615Z,13.23
2019-03-26T00:43:40.102Z,11.30
2019-03-26T00:46:10.444Z,10.27
2019-03-26T00:48:40.668Z,10.83
2019-03-26T00:51:10.819Z,15.37
2019-03-26T00:53:40.394Z,11.70
2019-03-26T00:56:10.519Z,8.93
2019-03-26T00:58:39.992Z,8.70
2019-03-26T01:01:10.201Z,15.97
2019-03-26T01:03:40.416Z,13.07
2019-03-26T01:06:10.815Z,9.83
2019-03-26T01:08:41.209Z,14.23
2019-03-26T01:11:11.378Z,10.30
2019-03-26T01:13:41.627Z,14.10
2019-03-26T01:16:11.880Z,11.57
2019-03-26T01:18:42.188Z,12.47
2019-03-26T01:21:12.339Z,12.93
2019-03-26T01:23:41.882Z,11.30
2019-03-26T01:26:11.979Z,10.37
2019-03-26T01:28:42.173Z,10.03
2019-03-26T01:31:12.305Z,14.67
2019-03-26T01:33:42.456Z,11.53
2019-03-26T01:36:12.663Z,10.70
2019-03-26T01:38:42.939Z,12.37
2019-03-26T01:41:12.402Z,13.30
2019-03-26T01:43:42.537Z,12.63
2019-03-26T01:46:12.854Z,19.50
2019-03-26T01:48:43.064Z,13.13
2019-03-26T01:51:12.666Z,13.47
2019-03-26T01:53:42.121Z,17.27
2019-03-26T01:56:12.185Z,14.60
2019-03-26T01:58:42.366Z,12.37
2019-03-26T02:01:12.606Z,18.13
2019-03-26T02:03:42.982Z,15.13
2019-03-26T02:06:12.463Z,21.27
2019-03-26T02:08:42.580Z,12.70
2019-03-26T02:11:12.915Z,18.73
2019-03-26T02:13:43.143Z,21.47
2019-03-26T02:16:13.324Z,19.43
2019-03-26T02:18:43.614Z,19.37
2019-03-26T02:21:15.487Z,15.60
2019-03-26T02:23:45.758Z,21.93
2019-03-26T02:26:16.048Z,24.27
2019-03-26T02:28:46.234Z,18.77
2019-03-26T02:31:15.784Z,20.83
2019-03-26T02:33:46.946Z,20.33
2019-03-26T02:36:16.409Z,20.23
2019-03-26T02:38:46.502Z,24.23
2019-03-26T02:41:16.683Z,22.00
2019-03-26T02:43:46.914Z,25.10
2019-03-26T02:46:17.138Z,19.03
2019-03-26T02:48:47.338Z,24.47
2019-03-26T02:51:17.612Z,19.80
2019-03-26T02:53:47.147Z,21.57
2019-03-26T02:56:17.437Z,26.53
2019-03-26T02:58:47.657Z,26.30
2019-03-26T03:01:17.871Z,21.03
2019-03-26T03:03:48.154Z,25.10
2019-03-26T03:06:18.618Z,22.30
2019-03-26T03:08:49.927Z,23.90
2019-03-26T03:11:19.466Z,21.53
2019-03-26T03:13:49.857Z,20.90
2019-03-26T03:16:19.989Z,19.33
2019-03-26T03:18:50.273Z,20.73
2019-03-26T03:21:20.027Z,23.90
2019-03-26T03:23:50.161Z,22.63
2019-03-26T03:26:19.637Z,23.53
2019-03-26T03:28:50.166Z,19.73
2019-03-26T03:31:19.624Z,17.97
2019-03-26T03:33:49.744Z,21.90
2019-03-26T03:36:20.097Z,19.33
2019-03-26T03:38:49.704Z,15.50
2019-03-26T03:41:20.892Z,19.70
2019-03-26T03:43:51.152Z,25.77
2019-03-26T03:46:21.702Z,22.57
2019-03-26T03:48:52.247Z,13.83
2019-03-26T03:51:25.213Z,23.57
2019-03-26T03:53:55.852Z,20.43
2019-03-26T03:56:29.557Z,18.77
2019-03-26T03:59:00.311Z,21.13
2019-03-26T04:01:30.717Z,20.63
2019-03-26T04:04:00.937Z,17.80
2019-03-26T04:06:30.533Z,17.13
2019-03-26T04:08:59.947Z,14.07
2019-03-26T04:11:29.564Z,14.70
2019-03-26T04:13:59.672Z,13.07
2019-03-26T04:16:29.212Z,13.67
2019-03-26T04:18:59.347Z,24.07
2019-03-26T04:21:29.710Z,14.27
2019-03-26T04:23:59.920Z,24.27
2019-03-26T04:26:29.400Z,16.77
2019-03-26T04:28:59.503Z,22.07
2019-03-26T04:31:29.058Z,20.97
2019-03-26T04:33:58.536Z,19.63
2019-03-26T04:36:28.621Z,15.77
2019-03-26T04:38:58.855Z,17.53
2019-03-26T04:41:29.110Z,24.90
2019-03-26T04:44:00.264Z,22.20
2019-03-26T04:46:30.552Z,15.30
2019-03-26T04:49:01.211Z,25.23
2019-03-26T04:51:31.542Z,24.13
2019-03-26T04:54:01.780Z,19.83
2019-03-26T04:56:32.074Z,22.43
2019-03-26T04:59:02.261Z,19.33
2019-03-26T05:01:32.447Z,19.83
2019-03-26T05:04:02.755Z,23.43
2019-03-26T05:06:37.833Z,11.50
2019-03-26T05:09:05.200Z,21.43
2019-03-26T05:11:35.494Z,13.70
2019-03-26T05:14:04.979Z,19.87
2019-03-26T05:16:35.265Z,17.77
2019-03-26T05:19:04.759Z,17.17
2019-03-26T05:21:34.940Z,15.83
2019-03-26T05:24:05.413Z,12.47
2019-03-26T05:26:35.642Z,18.03
2019-03-26T05:29:05.913Z,12.87
2019-03-26T05:31:36.210Z,15.03
2019-03-26T05:34:06.519Z,16.57
2019-03-26T05:36:36.083Z,18.73
2019-03-26T05:39:07.264Z,19.57
2019-03-26T05:41:37.587Z,13.40
2019-03-26T05:44:07.794Z,12.03
2019-03-26T05:46:38.006Z,15.50
2019-03-26T05:49:08.309Z,10.07
2019-03-26T05:51:38.538Z,12.13
2019-03-26T05:54:08.178Z,15.17
2019-03-26T05:56:38.673Z,9.70
2019-03-26T05:59:13.813Z,11.07
2019-03-26T06:01:43.950Z,10.03
2019-03-26T06:04:14.475Z,14.03
2019-03-26T06:06:45.691Z,12.47
2019-03-26T06:09:15.898Z,18.17
2019-03-26T06:11:46.460Z,12.80
2019-03-26T06:14:16.784Z,11.47
2019-03-26T06:16:47.027Z,10.37
2019-03-26T06:19:17.251Z,12.47
2019-03-26T06:21:46.711Z,10.60
2019-03-26T06:24:16.133Z,10.43
2019-03-26T06:26:45.681Z,9.27
2019-03-26T06:29:15.876Z,8.47
2019-03-26T06:31:46.146Z,9.10
2019-03-26T06:34:16.418Z,10.67
2019-03-26T06:36:45.984Z,11.43
2019-03-26T06:39:15.362Z,12.17
2019-03-26T06:41:45.483Z,12.30
2019-03-26T06:44:14.995Z,13.80
2019-03-26T06:46:45.105Z,9.77
2019-03-26T06:49:15.491Z,6.53
2019-03-26T06:51:45.711Z,10.73
2019-03-26T06:54:16.563Z,10.83
2019-03-26T07:00:11.430Z,7.73
2019-03-26T07:02:41.979Z,10.23
2019-03-26T07:05:13.399Z,8.37
2019-03-26T07:07:42.916Z,11.13
2019-03-26T07:10:18.938Z,8.47
2019-03-26T07:13:21.213Z,10.47
2019-03-26T07:15:58.772Z,7.83
2019-03-26T07:18:30.600Z,11.57
2019-03-26T07:21:00.894Z,8.23
2019-03-26T07:23:30.553Z,10.50
2019-03-26T07:25:59.985Z,11.57
2019-03-26T07:28:31.239Z,9.50
2019-03-26T07:31:01.515Z,6.40
2019-03-26T07:33:31.959Z,8.70
2019-03-26T07:36:02.343Z,8.20
2019-03-26T07:38:32.586Z,9.77
2019-03-26T07:41:02.858Z,11.27
2019-03-26T07:43:32.419Z,12.27
2019-03-26T07:46:02.571Z,8.30
2019-03-26T07:48:32.912Z,8.93
2019-03-26T07:51:03.157Z,7.67
2019-03-26T07:53:33.445Z,12.80
2019-03-26T07:56:03.109Z,10.43
2019-03-26T07:58:33.487Z,12.47
2019-03-26T08:01:04.124Z,7.30
2019-03-26T08:03:33.667Z,10.30
2019-03-26T08:06:04.072Z,8.33
2019-03-26T08:08:33.699Z,16.63
2019-03-26T08:11:03.652Z,26.53
2019-03-26T08:13:33.854Z,17.33
2019-03-26T08:16:04.146Z,14.73
2019-03-26T08:18:34.512Z,10.00
2019-03-26T08:21:04.766Z,16.00
2019-03-26T08:23:34.294Z,5.23
2019-03-26T08:26:03.832Z,9.73
2019-03-26T08:28:33.935Z,8.83
2019-03-26T08:31:04.701Z,11.83
2019-03-26T08:33:35.222Z,12.97
2019-03-26T08:36:06.495Z,13.37
2019-03-26T08:38:36.708Z,12.07
2019-03-26T08:41:06.974Z,9.37
2019-03-26T08:43:37.170Z,10.00
2019-03-26T08:46:07.385Z,14.57
2019-03-26T08:48:37.589Z,9.23
2019-03-26T08:51:07.835Z,10.77
2019-03-26T08:53:38.031Z,5.83
2019-03-26T08:56:07.607Z,9.00
2019-03-26T08:58:37.743Z,6.87
2019-03-26T09:01:08.148Z,20.17
2019-03-26T09:03:38.344Z,7.77
2019-03-26T09:06:08.669Z,8.97
2019-03-26T09:08:38.881Z,12.10
2019-03-26T09:11:09.151Z,10.67
2019-03-26T09:13:39.399Z,6.97
2019-03-26T09:16:09.682Z,13.00
2019-03-26T09:18:39.205Z,9.30
2019-03-26T09:21:09.479Z,10.37
2019-03-26T09:23:40.127Z,9.00
2019-03-26T09:26:10.105Z,11.40
2019-03-26T09:28:40.199Z,9.23
2019-03-26T09:31:09.699Z,11.00
2019-03-26T09:33:40.353Z,8.27
2019-03-26T09:36:10.738Z,6.83
2019-03-26T09:38:41.225Z,11.20
2019-03-26T09:41:11.611Z,9.10
2019-03-26T09:43:41.892Z,11.57
2019-03-26T09:46:11.430Z,10.03
2019-03-26T09:48:41.599Z,11.43
2019-03-26T09:51:11.854Z,9.07
2019-03-26T09:53:42.047Z,9.87
2019-03-26T09:56:11.598Z,17.40
2019-03-26T09:58:41.782Z,10.27
2019-03-26T10:01:12.224Z,10.17
2019-03-26T10:03:42.393Z,11.67
2019-03-26T10:06:22.785Z,14.00
2019-03-26T10:08:52.251Z,10.87
2019-03-26T10:11:16.519Z,14.47
2019-03-26T10:13:46.769Z,8.33
2019-03-26T10:16:17.389Z,8.07
2019-03-26T10:18:46.886Z,13.37
2019-03-26T10:21:17.083Z,12.77
2019-03-26T10:23:47.285Z,6.03
2019-03-26T10:26:17.463Z,9.07
2019-03-26T10:28:47.659Z,9.10
2019-03-26T10:31:17.860Z,10.03
2019-03-26T10:33:48.342Z,9.00
2019-03-26T10:36:17.915Z,15.77
2019-03-26T10:38:48.030Z,7.37
2019-03-26T10:41:18.767Z,7.90
2019-03-26T10:43:49.149Z,8.20
2019-03-26T10:46:19.460Z,10.57
2019-03-26T10:48:49.659Z,9.77
2019-03-26T10:51:20.471Z,8.53
2019-03-26T10:53:50.011Z,9.57
2019-03-26T10:56:20.531Z,8.70
2019-03-26T10:58:50.662Z,4.77
2019-03-26T11:01:20.916Z,8.60
2019-03-26T11:03:50.482Z,8.90
2019-03-26T11:06:20.634Z,10.23
2019-03-26T11:08:51.004Z,9.87
2019-03-26T11:11:21.200Z,9.67
2019-03-26T11:13:52.678Z,9.33
2019-03-26T11:16:22.242Z,8.80
2019-03-26T11:18:51.687Z,11.53
2019-03-26T11:21:21.202Z,11.83
2019-03-26T11:23:51.326Z,8.70
2019-03-26T11:26:21.654Z,11.47
2019-03-26T11:28:51.924Z,8.83
2019-03-26T11:31:21.495Z,12.13
2019-03-26T11:33:51.739Z,11.47
2019-03-26T11:36:21.990Z,8.90
2019-03-26T11:38:52.270Z,8.80
2019-03-26T11:41:21.925Z,12.17
2019-03-26T11:43:52.085Z,14.03
2019-03-26T11:46:22.443Z,12.17
2019-03-26T11:48:51.947Z,11.07
2019-03-26T11:51:21.420Z,11.00
2019-03-26T11:53:51.657Z,11.17
2019-03-26T11:56:21.980Z,13.33
2019-03-26T11:58:52.346Z,11.67
2019-03-26T12:01:21.910Z,11.10
2019-03-26T12:03:52.073Z,11.17
2019-03-26T12:06:22.705Z,8.93
2019-03-26T12:08:52.925Z,13.67
2019-03-26T12:11:22.391Z,7.33
2019-03-26T12:13:52.512Z,10.00
2019-03-26T12:16:22.933Z,9.40
2019-03-26T12:18:53.137Z,12.03
2019-03-26T12:21:22.750Z,10.40
2019-03-26T12:23:52.150Z,8.77
2019-03-26T12:26:22.270Z,8.03
2019-03-26T12:28:52.803Z,8.73
2019-03-26T12:31:22.674Z,10.80
2019-03-26T12:33:52.836Z,10.90
2019-03-26T12:36:22.390Z,10.37
2019-03-26T12:38:52.525Z,14.27
2019-03-26T12:41:23.170Z,10.07
2019-03-26T12:43:53.519Z,13.20
2019-03-26T12:46:23.242Z,10.30
2019-03-26T12:48:53.387Z,10.93
2019-03-26T12:51:24.668Z,11.73
2019-03-26T12:53:54.439Z,9.27
2019-03-26T12:56:24.574Z,15.30
2019-03-26T12:58:55.642Z,8.57
2019-03-26T13:01:26.042Z,6.57
2019-03-26T13:03:56.284Z,11.90
2019-03-26T13:06:25.787Z,13.63
2019-03-26T13:08:55.286Z,8.73
2019-03-26T13:11:25.470Z,10.20
2019-03-26T13:13:55.781Z,5.37
2019-03-26T13:16:26.074Z,15.50
2019-03-26T13:18:56.428Z,7.20
2019-03-26T13:21:26.724Z,9.10
2019-03-26T13:23:59.406Z,7.60
2019-03-26T13:26:29.646Z,7.27
2019-03-26T13:29:04.699Z,10.47
2019-03-26T13:31:34.287Z,6.97
2019-03-26T13:34:04.464Z,9.97
2019-03-26T13:36:34.629Z,7.87
2019-03-26T13:39:07.571Z,7.33
2019-03-26T13:41:38.342Z,10.90
2019-03-26T13:44:14.425Z,8.87
2019-03-26T13:46:44.562Z,7.47
2019-03-26T13:49:14.825Z,8.40
2019-03-26T13:51:44.929Z,6.37
2019-03-26T13:54:14.389Z,8.00
2019-03-26T13:56:44.778Z,6.73
2019-03-26T13:59:14.455Z,11.03
2019-03-26T14:01:45.601Z,13.07
2019-03-26T14:04:15.809Z,14.53
2019-03-26T14:06:46.039Z,7.87
2019-03-26T14:09:18.919Z,12.60
2019-03-26T14:11:49.258Z,5.83
2019-03-26T14:14:20.787Z,19.37
2019-03-26T14:16:50.497Z,6.10
2019-03-26T14:19:20.669Z,11.37
2019-03-26T14:21:51.191Z,10.40
2019-03-26T14:24:21.691Z,8.43
2019-03-26T14:26:52.872Z,6.93
2019-03-26T14:29:24.719Z,10.10
2019-03-26T14:31:54.348Z,7.50
2019-03-26T14:34:24.631Z,5.53
2019-03-26T14:36:55.071Z,8.90
2019-03-26T14:39:25.343Z,7.10
2019-03-26T14:41:55.340Z,6.27
2019-03-26T14:44:24.913Z,7.90
2019-03-26T14:46:55.175Z,7.00
2019-03-26T14:49:25.440Z,8.10
2019-03-26T14:51:56.019Z,8.03
2019-03-26T14:54:26.155Z,11.50
2019-03-26T14:56:56.159Z,7.47
2019-03-26T14:59:26.475Z,6.53
2019-03-26T15:01:56.079Z,8.00
2019-03-26T15:04:26.252Z,6.87
2019-03-26T15:06:56.602Z,9.07
2019-03-26T15:12:53.083Z,9.57
2019-03-26T15:15:23.466Z,9.60
2019-03-26T15:17:53.748Z,7.07
2019-03-26T15:20:24.302Z,7.53
2019-03-26T15:22:57.918Z,4.30
2019-03-26T15:25:26.519Z,7.53
2019-03-26T15:27:56.991Z,8.47
2019-03-26T15:30:26.471Z,7.57
2019-03-26T15:32:58.739Z,9.20
2019-03-26T15:35:28.900Z,7.73
2019-03-26T15:37:59.231Z,7.73
2019-03-26T15:40:53.526Z,8.00
2019-03-26T15:43:22.949Z,5.63
2019-03-26T15:45:53.397Z,6.37
2019-03-26T15:48:23.697Z,5.97
2019-03-26T15:50:54.091Z,9.47
2019-03-26T15:53:23.767Z,5.83
2019-03-26T15:55:53.890Z,7.03
2019-03-26T15:58:55.296Z,7.43
2019-03-26T16:01:24.785Z,9.33
2019-03-26T16:04:05.071Z,6.40
2019-03-26T16:06:34.611Z,8.27
2019-03-26T16:09:06.839Z,8.23
2019-03-26T16:11:38.004Z,5.87
2019-03-26T16:14:08.263Z,9.77
2019-03-26T16:16:39.787Z,5.93
2019-03-26T16:19:09.982Z,17.07
2019-03-26T16:21:40.180Z,8.53
2019-03-26T16:24:23.573Z,9.53
2019-03-26T16:26:54.129Z,6.07
2019-03-26T16:29:25.998Z,7.50
2019-03-26T16:32:04.406Z,4.97
2019-03-26T16:34:35.076Z,9.70
2019-03-26T16:37:04.660Z,5.73
2019-03-26T16:39:34.373Z,8.17
2019-03-26T16:42:04.867Z,9.27
2019-03-26T16:44:36.134Z,20.67
2019-03-26T16:47:06.725Z,9.07
2019-03-26T16:49:36.351Z,8.77
2019-03-26T16:52:05.826Z,8.10
2019-03-26T16:54:36.320Z,4.27
2019-03-26T16:57:06.004Z,8.17
2019-03-26T16:59:35.531Z,7.30
2019-03-26T17:02:05.275Z,6.60
2019-03-26T17:04:34.790Z,10.43
2019-03-26T17:07:04.990Z,4.37
2019-03-26T17:09:37.992Z,6.00
2019-03-26T17:12:10.066Z,4.80
2019-03-26T17:14:40.279Z,7.27
2019-03-26T17:17:10.700Z,6.67
2019-03-26T17:19:41.002Z,4.30
2019-03-26T17:22:12.859Z,20.07
2019-03-26T17:24:42.710Z,6.13
2019-03-26T17:27:12.262Z,6.40
2019-03-26T17:29:42.418Z,7.97
2019-03-26T17:32:16.431Z,5.33
2019-03-26T17:34:54.631Z,8.90
2019-03-26T17:37:24.446Z,5.47
2019-03-26T17:39:54.295Z,6.53
2019-03-26T17:42:24.819Z,4.83
2019-03-26T17:44:58.229Z,4.87
2019-03-26T17:47:27.493Z,5.63
2019-03-26T17:49:57.260Z,8.50
2019-03-26T17:52:26.847Z,3.17
2019-03-26T17:54:56.308Z,5.80
2019-03-26T17:57:26.666Z,5.03
2019-03-26T17:59:56.363Z,4.93
2019-03-26T18:02:25.820Z,7.30
2019-03-26T18:04:55.567Z,6.43
2019-03-26T18:07:25.759Z,7.77
2019-03-26T18:09:56.148Z,6.13
2019-03-26T18:12:30.997Z,6.67
2019-03-26T18:14:57.718Z,11.70
2019-03-26T18:17:28.266Z,4.87
2019-03-26T18:19:57.817Z,5.73
2019-03-26T18:22:36.184Z,8.27
2019-03-26T18:25:06.576Z,9.10
2019-03-26T18:27:36.335Z,5.83
2019-03-26T18:30:06.959Z,10.03
2019-03-26T18:32:36.736Z,5.03
2019-03-26T18:35:07.277Z,9.60
2019-03-26T18:37:36.952Z,7.07
2019-03-26T18:40:07.139Z,7.63
2019-03-26T18:42:44.255Z,6.47
2019-03-26T18:45:11.540Z,7.07
2019-03-26T18:47:41.783Z,8.63
2019-03-26T18:50:12.527Z,5.17
2019-03-26T18:52:42.802Z,7.33
2019-03-26T18:55:12.472Z,6.30
2019-03-26T18:57:41.837Z,5.70
2019-03-26T19:00:13.246Z,6.70
2019-03-26T19:02:44.402Z,8.53
2019-03-26T19:05:15.430Z,2.90
2019-03-26T19:07:44.943Z,7.07
2019-03-26T19:10:26.716Z,3.97
2019-03-26T19:12:57.435Z,4.60
2019-03-26T19:15:27.206Z,7.50
2019-03-26T19:17:58.994Z,6.27
2019-03-26T19:20:28.485Z,6.07
2019-03-26T19:22:58.683Z,3.93
2019-03-26T19:25:28.249Z,4.20
2019-03-26T19:28:21.276Z,9.33
2019-03-26T19:30:50.857Z,6.60
2019-03-26T19:33:20.273Z,6.83
2019-03-26T19:35:49.804Z,4.60
2019-03-26T19:38:19.973Z,38.57
2019-03-26T19:40:50.328Z,18.83
2019-03-26T19:43:19.893Z,24.23
2019-03-26T19:45:49.529Z,7.47
2019-03-26T19:48:19.194Z,3.50
2019-03-26T19:50:49.432Z,6.77
2019-03-26T19:53:19.216Z,3.53
2019-03-26T19:55:49.521Z,5.03
2019-03-26T19:58:19.805Z,8.97
2019-03-26T20:00:49.994Z,5.90
2019-03-26T20:03:19.606Z,6.37
2019-03-26T20:05:49.718Z,5.40
2019-03-26T20:08:19.356Z,7.80
2019-03-26T20:10:49.482Z,11.80
2019-03-26T20:13:24.784Z,23.30
2019-03-26T20:15:51.088Z,21.40
2019-03-26T20:18:20.593Z,12.77
2019-03-26T20:20:50.827Z,10.17
2019-03-26T20:23:21.924Z,8.40
2019-03-26T20:25:51.517Z,52.83
2019-03-26T20:28:21.060Z,28.40
2019-03-26T20:30:50.684Z,13.50
2019-03-26T20:33:21.190Z,6.53
2019-03-26T20:35:50.676Z,6.47
2019-03-26T20:38:20.758Z,5.50
2019-03-26T20:40:51.095Z,7.03
2019-03-26T20:43:23.000Z,7.90
2019-03-26T20:45:53.069Z,10.30
2019-03-26T20:48:23.402Z,7.07
2019-03-26T20:50:53.062Z,6.67
2019-03-26T20:53:22.503Z,4.60
2019-03-26T20:55:54.576Z,8.70
2019-03-26T20:58:23.691Z,8.20
2019-03-26T21:00:55.215Z,7.13
2019-03-26T21:03:24.725Z,6.87
2019-03-26T21:05:54.786Z,7.77
2019-03-26T21:08:24.279Z,6.80
2019-03-26T21:10:55.747Z,7.60
2019-03-26T21:13:25.965Z,10.60
2019-03-26T21:15:57.526Z,7.73
2019-03-26T21:18:28.170Z,9.77
2019-03-26T21:20:58.501Z,8.80
2019-03-26T21:23:33.558Z,7.53
2019-03-26T21:26:04.203Z,6.87
2019-03-26T21:28:34.390Z,6.93
2019-03-26T21:31:04.911Z,11.73
2019-03-26T21:33:34.570Z,7.37
2019-03-26T21:36:05.559Z,6.90
2019-03-26T21:38:35.756Z,9.57
2019-03-26T21:41:05.924Z,8.13
2019-03-26T21:43:36.112Z,8.37
2019-03-26T21:46:06.279Z,8.37
2019-03-26T21:48:36.447Z,7.50
2019-03-26T21:51:06.667Z,8.87
2019-03-26T21:53:36.161Z,6.67
2019-03-26T21:56:06.967Z,6.17
2019-03-26T21:58:37.559Z,5.87
2019-03-26T22:01:07.772Z,8.50
2019-03-26T22:03:37.982Z,6.73
2019-03-26T22:06:08.218Z,5.53
2019-03-26T22:08:37.857Z,7.83
2019-03-26T22:11:08.021Z,9.27
2019-03-26T22:13:38.380Z,7.10
2019-03-26T22:16:07.865Z,6.87
2019-03-26T22:18:37.258Z,4.03
2019-03-26T22:21:07.328Z,4.40
2019-03-26T22:23:36.815Z,6.60
2019-03-26T22:26:06.247Z,6.90
2019-03-26T22:28:36.391Z,6.20
2019-03-26T22:31:05.842Z,10.53
2019-03-26T22:33:35.955Z,5.37
2019-03-26T22:36:06.360Z,4.80
2019-03-26T22:38:36.555Z,5.90
2019-03-26T22:41:06.909Z,9.93
2019-03-26T22:43:37.150Z,7.53
2019-03-26T22:46:07.319Z,5.87
2019-03-26T22:48:36.816Z,4.93
2019-03-26T22:51:07.081Z,5.40
2019-03-26T22:53:37.296Z,6.13
2019-03-26T22:56:07.482Z,9.50
2019-03-26T22:58:36.970Z,5.40
2019-03-26T23:01:06.530Z,6.50
2019-03-26T23:03:36.702Z,4.67
2019-03-26T23:06:07.062Z,5.73
2019-03-26T23:08:37.297Z,8.80
2019-03-26T23:11:07.618Z,7.00
2019-03-26T23:13:37.818Z,8.40
2019-03-26T23:16:08.318Z,5.97
2019-03-26T23:18:38.594Z,7.83
2019-03-26T23:21:09.012Z,8.30
2019-03-26T23:23:38.534Z,5.87
2019-03-26T23:26:07.997Z,10.23
2019-03-26T23:28:38.105Z,8.07
2019-03-26T23:31:08.480Z,6.30
2019-03-26T23:33:38.023Z,6.10
2019-03-26T23:36:08.588Z,4.40
2019-03-26T23:38:38.683Z,5.50
2019-03-26T23:41:08.922Z,6.60
2019-03-26T23:43:39.226Z,5.73
2019-03-26T23:46:09.451Z,6.60
2019-03-26T23:48:39.823Z,6.77
2019-03-26T23:51:09.405Z,8.83
2019-03-26T23:53:39.515Z,4.17
2019-03-26T23:56:09.013Z,5.63
2019-03-26T23:58:38.387Z,6.03
